createdAt,value
2018-12-16T00:02:06.023Z,42.47
2018-12-16T00:04:36.013Z,42.07
2018-12-16T00:07:06.792Z,39.63
2018-12-16T00:09:37.029Z,42.40
2018-12-16T00:12:06.720Z,37.73
2018-12-16T00:14:36.123Z,41.07
2018-12-16T00:17:05.475Z,40.07
2018-12-16T00:19:34.815Z,41.40
2018-12-16T00:22:04.417Z,37.87
2018-12-16T00:24:33.801Z,37.20
2018-12-16T00:27:15.715Z,37.67
2018-12-16T00:29:45.443Z,36.37
2018-12-16T00:32:14.853Z,38.83
2018-12-16T00:34:44.217Z,36.80
2018-12-16T00:37:13.702Z,36.63
2018-12-16T00:39:43.113Z,39.03
2018-12-16T00:42:12.425Z,35.70
2018-12-16T00:44:41.759Z,35.87
2018-12-16T00:47:12.132Z,35.07
2018-12-16T00:49:41.555Z,38.17
2018-12-16T00:52:11.012Z,40.30
2018-12-16T00:54:40.337Z,40.33
2018-12-16T00:57:09.802Z,38.90
2018-12-16T00:59:39.156Z,41.93
2018-12-16T01:02:13.926Z,42.37
2018-12-16T01:04:43.488Z,40.07
2018-12-16T01:07:13.035Z,42.07
2018-12-16T01:09:42.345Z,45.67
2018-12-16T01:12:11.782Z,41.47
2018-12-16T01:14:41.227Z,44.37
2018-12-16T01:17:10.559Z,41.77
2018-12-16T01:19:39.934Z,41.40
2018-12-16T01:22:09.460Z,47.63
2018-12-16T01:24:38.837Z,43.33
2018-12-16T01:27:08.172Z,43.73
2018-12-16T01:29:37.644Z,41.30
2018-12-16T01:32:07.041Z,45.80
2018-12-16T01:34:36.485Z,46.53
2018-12-16T01:37:06.050Z,41.20
2018-12-16T01:39:35.506Z,41.13
2018-12-16T01:42:05.722Z,40.57
2018-12-16T01:44:35.783Z,40.60
2018-12-16T01:47:05.145Z,38.77
2018-12-16T01:49:34.527Z,36.67
2018-12-16T01:52:03.979Z,38.80
2018-12-16T01:54:33.512Z,40.80
2018-12-16T01:57:02.937Z,38.47
2018-12-16T01:59:32.407Z,35.23
2018-12-16T02:02:01.738Z,39.27
2018-12-16T02:04:31.091Z,37.13
2018-12-16T02:07:00.535Z,36.57
2018-12-16T02:09:30.139Z,38.47
2018-12-16T02:11:59.535Z,38.90
2018-12-16T02:14:28.806Z,40.53
2018-12-16T02:16:58.119Z,39.40
2018-12-16T02:19:27.681Z,39.23
2018-12-16T02:21:57.141Z,35.03
2018-12-16T02:24:26.664Z,37.03
2018-12-16T02:26:55.969Z,41.40
2018-12-16T02:29:25.547Z,35.07
2018-12-16T02:31:55.059Z,35.10
2018-12-16T02:34:24.498Z,35.90
2018-12-16T02:36:53.870Z,38.30
2018-12-16T02:39:23.223Z,38.47
2018-12-16T02:41:52.638Z,39.40
2018-12-16T02:44:22.336Z,40.27
2018-12-16T02:46:52.240Z,42.83
2018-12-16T02:49:21.584Z,38.93
2018-12-16T02:51:51.073Z,38.87
2018-12-16T02:54:20.449Z,36.30
2018-12-16T02:56:49.789Z,40.93
2018-12-16T02:59:19.339Z,38.03
2018-12-16T03:01:48.920Z,38.00
2018-12-16T03:04:18.440Z,34.33
2018-12-16T03:06:47.856Z,40.83
2018-12-16T03:09:17.300Z,40.70
2018-12-16T03:11:46.686Z,43.57
2018-12-16T03:14:16.135Z,42.90
2018-12-16T03:16:45.425Z,42.63
2018-12-16T03:19:14.804Z,43.43
2018-12-16T03:21:44.150Z,40.90
2018-12-16T03:24:13.548Z,41.63
2018-12-16T03:26:42.875Z,40.70
2018-12-16T03:29:12.215Z,38.53
2018-12-16T03:31:41.728Z,44.27
2018-12-16T03:34:12.140Z,40.70
2018-12-16T03:36:41.535Z,39.40
2018-12-16T03:39:10.859Z,39.27
2018-12-16T03:41:40.399Z,42.90
2018-12-16T03:44:09.760Z,39.80
2018-12-16T03:46:39.220Z,35.67
2018-12-16T03:49:08.608Z,39.67
2018-12-16T03:51:37.981Z,41.67
2018-12-16T03:54:07.546Z,39.63
2018-12-16T03:56:37.025Z,41.67
2018-12-16T04:02:19.528Z,37.80
2018-12-16T04:04:49.190Z,41.47
2018-12-16T04:07:18.610Z,41.63
2018-12-16T04:09:47.989Z,37.10
2018-12-16T04:12:17.414Z,42.10
2018-12-16T04:14:46.713Z,37.23
2018-12-16T04:17:16.021Z,36.90
2018-12-16T04:19:45.389Z,41.63
2018-12-16T04:22:14.784Z,41.80
2018-12-16T04:24:44.191Z,37.47
2018-12-16T04:27:13.552Z,40.23
2018-12-16T04:29:42.924Z,38.20
2018-12-16T04:32:12.355Z,41.70
2018-12-16T04:34:42.052Z,44.50
2018-12-16T04:37:11.521Z,39.30
2018-12-16T04:39:40.934Z,40.70
2018-12-16T04:42:10.271Z,37.73
2018-12-16T04:44:39.678Z,37.33
2018-12-16T04:47:09.033Z,43.03
2018-12-16T04:49:38.495Z,39.83
2018-12-16T04:52:08.233Z,38.10
2018-12-16T04:54:37.503Z,39.63
2018-12-16T04:57:06.834Z,38.33
2018-12-16T04:59:36.157Z,39.37
2018-12-16T05:02:05.582Z,39.57
2018-12-16T05:04:34.922Z,46.60
2018-12-16T05:07:04.459Z,39.90
2018-12-16T05:09:33.992Z,37.67
2018-12-16T05:12:03.378Z,40.63
2018-12-16T05:14:32.784Z,38.83
2018-12-16T05:17:02.149Z,42.30
2018-12-16T05:19:31.553Z,37.90
2018-12-16T05:22:00.802Z,40.83
2018-12-16T05:24:30.148Z,39.77
2018-12-16T05:26:59.648Z,42.47
2018-12-16T05:29:29.048Z,39.30
2018-12-16T05:31:58.434Z,43.47
2018-12-16T05:34:27.734Z,41.13
2018-12-16T05:36:57.188Z,39.97
2018-12-16T05:39:26.606Z,45.70
2018-12-16T05:41:56.045Z,43.33
2018-12-16T05:44:25.394Z,42.97
2018-12-16T05:46:54.296Z,47.40
2018-12-16T05:49:23.623Z,39.67
2018-12-16T05:51:52.901Z,44.60
2018-12-16T05:54:22.379Z,42.27
2018-12-16T05:56:51.674Z,47.80
2018-12-16T05:59:21.259Z,45.10
2018-12-16T06:04:53.813Z,43.47
2018-12-16T06:07:23.587Z,47.20
2018-12-16T06:09:53.020Z,42.37
2018-12-16T06:12:22.460Z,50.93
2018-12-16T06:14:51.739Z,43.33
2018-12-16T06:17:21.325Z,42.70
2018-12-16T06:19:50.743Z,46.87
2018-12-16T06:22:20.111Z,44.90
2018-12-16T06:24:49.453Z,48.30
2018-12-16T06:27:18.828Z,45.27
2018-12-16T06:32:49.771Z,46.37
2018-12-16T06:35:19.639Z,46.17
2018-12-16T06:37:49.014Z,49.57
2018-12-16T06:40:18.531Z,47.30
2018-12-16T06:42:47.950Z,42.60
2018-12-16T06:45:17.375Z,44.77
2018-12-16T06:47:46.737Z,45.77
2018-12-16T06:50:16.400Z,46.30
2018-12-16T06:52:45.791Z,48.87
2018-12-16T06:55:15.150Z,52.07
2018-12-16T06:57:44.894Z,49.70
2018-12-16T07:00:14.568Z,45.73
2018-12-16T07:05:48.867Z,44.80
2018-12-16T07:08:18.196Z,49.50
2018-12-16T07:10:47.550Z,52.93
2018-12-16T07:13:17.217Z,47.73
2018-12-16T07:15:46.590Z,48.50
2018-12-16T07:18:15.984Z,48.13
2018-12-16T07:20:45.442Z,48.07
2018-12-16T07:23:14.969Z,45.00
2018-12-16T07:25:44.555Z,47.23
2018-12-16T07:28:14.053Z,48.77
2018-12-16T07:30:43.366Z,47.80
2018-12-16T07:33:13.069Z,45.17
2018-12-16T07:35:42.415Z,47.47
2018-12-16T07:38:11.818Z,45.33
2018-12-16T07:40:41.121Z,47.03
2018-12-16T07:43:10.424Z,49.57
2018-12-16T07:45:40.458Z,51.07
2018-12-16T07:48:09.808Z,43.83
2018-12-16T07:50:38.375Z,47.67
2018-12-16T07:53:08.135Z,44.23
2018-12-16T07:55:37.678Z,46.60
2018-12-16T07:58:07.508Z,51.70
2018-12-16T08:00:38.253Z,51.00
2018-12-16T08:03:07.916Z,45.83
2018-12-16T08:05:37.484Z,49.17
2018-12-16T08:08:06.794Z,49.00
2018-12-16T08:10:36.190Z,46.47
2018-12-16T08:13:05.677Z,48.03
2018-12-16T08:15:35.115Z,45.27
2018-12-16T08:18:04.545Z,48.57
2018-12-16T08:20:34.768Z,47.80
2018-12-16T08:23:04.411Z,46.40
2018-12-16T08:25:33.924Z,44.53
2018-12-16T08:28:03.363Z,44.43
2018-12-16T08:30:32.701Z,50.00
2018-12-16T08:33:02.866Z,46.27
2018-12-16T08:35:32.248Z,45.80
2018-12-16T08:38:01.634Z,47.10
2018-12-16T08:40:31.002Z,45.77
2018-12-16T08:43:00.446Z,50.27
2018-12-16T08:45:29.819Z,44.50
2018-12-16T08:47:59.278Z,43.60
2018-12-16T08:50:28.840Z,39.93
2018-12-16T08:52:59.206Z,38.10
2018-12-16T08:55:28.733Z,42.67
2018-12-16T08:57:59.008Z,40.47
2018-12-16T09:00:28.381Z,39.77
2018-12-16T09:02:57.778Z,38.20
2018-12-16T09:05:27.204Z,40.77
2018-12-16T09:07:56.651Z,40.13
2018-12-16T09:13:26.496Z,37.53
2018-12-16T09:15:56.555Z,42.67
2018-12-16T09:18:26.249Z,37.60
2018-12-16T09:23:57.866Z,42.10
2018-12-16T09:26:27.490Z,41.20
2018-12-16T09:28:56.816Z,43.47
2018-12-16T09:31:26.446Z,41.53
2018-12-16T09:36:49.737Z,39.97
2018-12-16T09:39:19.170Z,43.67
2018-12-16T09:41:48.529Z,42.97
2018-12-16T09:44:17.797Z,41.80
2018-12-16T09:46:47.533Z,42.90
2018-12-16T09:49:17.025Z,44.03
2018-12-16T09:51:46.549Z,42.97
2018-12-16T09:54:15.911Z,41.63
2018-12-16T09:56:45.333Z,41.63
2018-12-16T09:59:14.692Z,37.20
2018-12-16T10:01:44.036Z,41.07
2018-12-16T10:04:13.470Z,40.30
2018-12-16T10:06:42.820Z,38.73
2018-12-16T10:09:12.305Z,38.63
2018-12-16T10:11:41.625Z,39.70
2018-12-16T10:14:10.954Z,40.33
2018-12-16T10:16:40.394Z,36.93
2018-12-16T10:19:09.714Z,43.97
2018-12-16T10:21:39.082Z,42.17
2018-12-16T10:24:08.567Z,42.60
2018-12-16T10:26:38.021Z,40.07
2018-12-16T10:29:07.359Z,43.17
2018-12-16T10:31:36.712Z,49.20
2018-12-16T10:34:06.115Z,39.93
2018-12-16T10:36:35.573Z,42.40
2018-12-16T10:39:08.151Z,40.70
2018-12-16T10:41:37.536Z,41.77
2018-12-16T10:44:07.115Z,43.63
2018-12-16T10:46:36.766Z,36.60
2018-12-16T10:49:06.225Z,39.30
2018-12-16T10:51:35.670Z,44.97
2018-12-16T10:54:05.170Z,42.73
2018-12-16T10:56:34.576Z,43.70
2018-12-16T10:59:04.088Z,41.53
2018-12-16T11:04:36.598Z,39.87
2018-12-16T11:07:06.049Z,36.87
2018-12-16T11:09:35.493Z,38.00
2018-12-16T11:12:05.001Z,41.57
2018-12-16T11:14:34.352Z,40.80
2018-12-16T11:17:04.574Z,41.70
2018-12-16T11:19:33.962Z,40.30
2018-12-16T11:22:03.282Z,42.23
2018-12-16T11:24:32.644Z,40.70
2018-12-16T11:27:02.011Z,41.70
2018-12-16T11:32:32.641Z,34.47
2018-12-16T11:35:02.052Z,43.23
2018-12-16T11:37:31.405Z,43.27
2018-12-16T11:40:00.681Z,43.87
2018-12-16T11:42:30.288Z,46.57
2018-12-16T11:44:59.840Z,43.77
2018-12-16T11:47:29.203Z,41.40
2018-12-16T11:49:58.585Z,45.53
2018-12-16T11:52:27.988Z,44.27
2018-12-16T11:54:57.276Z,46.47
2018-12-16T11:57:26.749Z,46.43
2018-12-16T11:59:56.018Z,38.87
2018-12-16T12:02:32.786Z,42.60
2018-12-16T12:04:59.498Z,39.53
2018-12-16T12:07:28.890Z,40.07
2018-12-16T12:09:58.257Z,42.10
2018-12-16T12:12:27.570Z,44.80
2018-12-16T12:14:56.899Z,43.33
2018-12-16T12:17:26.328Z,45.07
2018-12-16T12:19:55.631Z,46.43
2018-12-16T12:22:24.976Z,47.17
2018-12-16T12:24:54.437Z,49.50
2018-12-16T12:27:23.882Z,47.47
2018-12-16T12:29:53.411Z,44.27
2018-12-16T12:32:22.821Z,49.73
2018-12-16T12:34:52.138Z,44.30
2018-12-16T12:37:21.429Z,43.70
2018-12-16T12:39:50.765Z,45.17
2018-12-16T12:42:20.196Z,43.07
2018-12-16T12:44:49.458Z,47.33
2018-12-16T12:47:18.915Z,46.13
2018-12-16T12:49:48.190Z,49.47
2018-12-16T12:52:17.505Z,49.90
2018-12-16T12:54:47.407Z,49.23
2018-12-16T12:57:16.715Z,45.57
2018-12-16T12:59:46.272Z,47.33
2018-12-16T13:02:15.906Z,50.60
2018-12-16T13:04:45.214Z,49.60
2018-12-16T13:07:14.507Z,45.13
2018-12-16T13:12:43.164Z,51.93
2018-12-16T13:15:12.546Z,50.97
2018-12-16T13:17:41.978Z,46.97
2018-12-16T13:20:11.605Z,49.17
2018-12-16T13:22:40.898Z,47.33
2018-12-16T13:25:33.590Z,50.13
2018-12-16T13:27:58.358Z,51.43
2018-12-16T13:30:27.702Z,49.37
2018-12-16T13:32:57.009Z,43.60
2018-12-16T13:35:26.585Z,52.40
2018-12-16T13:37:55.992Z,53.13
2018-12-16T13:40:25.273Z,51.30
2018-12-16T13:42:54.754Z,56.07
2018-12-16T13:45:24.190Z,50.87
2018-12-16T13:47:53.506Z,53.03
2018-12-16T13:50:22.911Z,55.00
2018-12-16T13:52:52.262Z,53.77
2018-12-16T13:55:21.666Z,52.53
2018-12-16T14:00:54.661Z,57.03
2018-12-16T14:03:24.172Z,52.23
2018-12-16T14:05:53.685Z,53.77
2018-12-16T14:08:23.166Z,60.90
2018-12-16T14:10:52.710Z,53.77
2018-12-16T14:13:22.003Z,55.37
2018-12-16T14:15:52.529Z,56.10
2018-12-16T14:18:22.318Z,54.60
2018-12-16T14:23:51.158Z,52.27
2018-12-16T14:26:20.537Z,55.73
2018-12-16T14:28:49.833Z,54.87
2018-12-16T14:31:19.161Z,54.43
2018-12-16T14:33:48.602Z,54.93
2018-12-16T14:36:18.217Z,57.83
2018-12-16T14:38:47.774Z,53.50
2018-12-16T14:41:17.417Z,52.10
2018-12-16T14:43:46.926Z,52.03
2018-12-16T14:46:16.383Z,55.13
2018-12-16T15:05:09.048Z,59.97
2018-12-16T15:07:38.462Z,61.03
2018-12-16T15:10:10.959Z,62.20
2018-12-16T15:12:40.294Z,63.33
2018-12-16T15:15:10.207Z,56.90
2018-12-16T15:17:42.974Z,58.60
2018-12-16T15:20:11.073Z,55.50
2018-12-16T15:22:40.526Z,58.97
2018-12-16T15:25:10.111Z,60.00
2018-12-16T15:27:39.382Z,56.30
2018-12-16T15:30:10.821Z,52.07
2018-12-16T15:32:40.243Z,54.10
2018-12-16T15:35:09.576Z,53.93
2018-12-16T15:37:38.894Z,53.83
2018-12-16T15:40:09.040Z,49.80
2018-12-16T15:42:38.438Z,54.30
2018-12-16T15:45:10.404Z,55.23
2018-12-16T15:47:39.725Z,57.87
2018-12-16T15:50:10.296Z,57.40
2018-12-16T15:52:39.646Z,59.60
2018-12-16T15:55:11.229Z,55.93
2018-12-16T15:57:40.593Z,58.70
2018-12-16T16:00:10.227Z,61.13
2018-12-16T16:02:39.565Z,57.30
2018-12-16T16:05:09.049Z,62.40
2018-12-16T16:07:38.433Z,52.70
2018-12-16T16:10:09.256Z,59.03
2018-12-16T16:12:38.569Z,58.23
2018-12-16T16:15:09.073Z,55.47
2018-12-16T16:17:38.368Z,57.97
2018-12-16T16:20:08.086Z,62.77
2018-12-16T16:22:37.525Z,58.73
2018-12-16T16:25:07.174Z,60.10
2018-12-16T16:27:36.616Z,56.83
2018-12-16T16:30:07.395Z,52.73
2018-12-16T16:32:36.754Z,63.53
2018-12-16T16:35:06.770Z,56.03
2018-12-16T16:37:36.143Z,58.87
2018-12-16T16:40:06.525Z,57.37
2018-12-16T16:42:35.877Z,59.17
2018-12-16T16:45:06.505Z,53.57
2018-12-16T16:47:35.908Z,56.17
2018-12-16T16:50:06.226Z,58.47
2018-12-16T16:52:35.717Z,56.20
2018-12-16T16:55:05.588Z,55.53
2018-12-16T16:57:34.901Z,59.37
2018-12-16T17:00:04.861Z,60.33
2018-12-16T17:02:34.252Z,54.77
2018-12-16T17:05:03.842Z,59.13
2018-12-16T17:07:33.102Z,60.27
2018-12-16T17:10:02.473Z,52.17
2018-12-16T17:12:31.841Z,57.57
2018-12-16T17:15:01.130Z,55.97
2018-12-16T17:17:30.437Z,56.37
2018-12-16T17:19:59.722Z,60.30
2018-12-16T17:22:28.968Z,55.60
2018-12-16T17:24:58.238Z,58.90
2018-12-16T17:27:27.712Z,62.20
2018-12-16T17:29:57.117Z,64.03
2018-12-16T17:32:26.602Z,64.50
2018-12-16T17:34:55.993Z,69.17
2018-12-16T17:37:25.269Z,76.67
2018-12-16T17:39:54.547Z,64.50
2018-12-16T17:42:23.905Z,65.10
2018-12-16T17:44:53.270Z,66.40
2018-12-16T17:47:22.574Z,61.03
2018-12-16T17:49:52.684Z,58.27
2018-12-16T17:52:22.045Z,60.30
2018-12-16T17:54:51.498Z,60.67
2018-12-16T17:57:20.843Z,55.07
2018-12-16T17:59:50.319Z,54.87
2018-12-16T18:02:19.811Z,54.87
2018-12-16T18:04:49.122Z,56.17
2018-12-16T18:07:18.441Z,53.50
2018-12-16T18:09:47.746Z,55.07
2018-12-16T18:12:17.126Z,57.27
2018-12-16T18:14:46.489Z,50.57
2018-12-16T18:17:16.694Z,60.17
2018-12-16T18:19:45.986Z,59.23
2018-12-16T18:22:15.302Z,59.23
2018-12-16T18:24:44.717Z,61.43
2018-12-16T18:30:15.082Z,54.13
2018-12-16T18:32:44.552Z,69.20
2018-12-16T18:35:14.097Z,67.20
2018-12-16T18:37:43.564Z,71.13
2018-12-16T18:40:13.133Z,63.13
2018-12-16T18:42:43.628Z,51.47
2018-12-16T18:45:13.167Z,50.80
2018-12-16T18:47:42.461Z,54.90
2018-12-16T18:50:12.152Z,54.77
2018-12-16T18:52:41.636Z,53.03
2018-12-16T18:55:11.125Z,51.20
2018-12-16T18:57:40.482Z,49.97
2018-12-16T19:00:11.952Z,56.57
2018-12-16T19:02:41.269Z,42.87
2018-12-16T19:05:10.624Z,54.43
2018-12-16T19:07:39.950Z,52.53
2018-12-16T19:10:10.009Z,51.83
2018-12-16T19:12:39.322Z,57.83
2018-12-16T19:15:09.733Z,55.00
2018-12-16T19:17:38.969Z,52.83
2018-12-16T19:20:08.438Z,53.77
2018-12-16T19:22:37.686Z,50.77
2018-12-16T19:25:07.085Z,55.53
2018-12-16T19:27:36.419Z,50.13
2018-12-16T19:30:07.307Z,53.50
2018-12-16T19:32:36.734Z,56.30
2018-12-16T19:35:07.949Z,55.60
2018-12-16T19:37:37.203Z,59.77
2018-12-16T19:40:07.153Z,57.67
2018-12-16T19:42:36.433Z,56.40
2018-12-16T19:45:07.197Z,56.23
2018-12-16T19:47:36.481Z,62.27
2018-12-16T19:50:07.465Z,61.80
2018-12-16T19:52:36.790Z,61.77
2018-12-16T19:55:06.597Z,59.00
2018-12-16T19:57:35.881Z,53.70
2018-12-16T20:00:05.864Z,50.77
2018-12-16T20:02:35.215Z,52.40
2018-12-16T20:05:05.572Z,53.87
2018-12-16T20:07:35.180Z,54.40
2018-12-16T20:10:04.969Z,43.13
2018-12-16T20:12:34.244Z,50.93
2018-12-16T20:15:03.688Z,52.43
2018-12-16T20:17:33.070Z,51.13
2018-12-16T20:20:02.548Z,59.23
2018-12-16T20:22:32.149Z,54.23
2018-12-16T20:25:01.452Z,58.20
2018-12-16T20:27:30.777Z,64.97
2018-12-16T20:30:00.475Z,69.90
2018-12-16T20:32:29.722Z,69.43
2018-12-16T20:34:59.281Z,66.50
2018-12-16T20:37:29.307Z,63.87
2018-12-16T20:39:58.587Z,69.63
2018-12-16T20:42:27.834Z,75.30
2018-12-16T20:44:57.112Z,66.97
2018-12-16T20:47:26.371Z,72.60
2018-12-16T20:49:55.855Z,71.43
2018-12-16T20:52:25.619Z,60.23
2018-12-16T20:54:54.887Z,70.70
2018-12-16T20:57:24.151Z,63.03
2018-12-16T20:59:53.494Z,60.40
2018-12-16T21:02:22.851Z,68.20
2018-12-16T21:04:52.167Z,65.57
2018-12-16T21:07:21.553Z,59.57
2018-12-16T21:09:50.836Z,53.47
2018-12-16T21:12:25.251Z,59.93
2018-12-16T21:14:59.871Z,69.80
2018-12-16T21:18:38.505Z,71.83
2018-12-16T21:21:07.749Z,68.67
2018-12-16T21:23:37.031Z,62.70
2018-12-16T21:26:06.291Z,67.33
2018-12-16T21:28:35.774Z,65.60
2018-12-16T21:31:05.119Z,66.30
2018-12-16T21:33:34.444Z,67.70
2018-12-16T21:36:03.895Z,66.50
2018-12-16T21:38:33.307Z,69.80
2018-12-16T21:41:03.466Z,69.33
2018-12-16T21:43:34.932Z,64.57
2018-12-16T21:46:04.459Z,62.10
2018-12-16T21:48:33.671Z,54.70
2018-12-16T21:51:02.905Z,58.13
2018-12-16T21:53:32.106Z,74.83
2018-12-16T21:56:01.612Z,64.50
2018-12-16T21:58:30.839Z,68.73
2018-12-16T22:01:00.034Z,77.00
2018-12-16T22:03:30.294Z,65.73
2018-12-16T22:05:59.738Z,65.40
2018-12-16T22:08:29.035Z,65.93
2018-12-16T22:10:58.389Z,67.87
2018-12-16T22:13:27.702Z,68.03
2018-12-16T22:15:57.012Z,75.77
2018-12-16T22:18:26.386Z,74.87
2018-12-16T22:20:55.707Z,71.17
2018-12-16T22:23:25.021Z,73.23
2018-12-16T22:25:54.347Z,70.13
2018-12-16T22:28:23.828Z,69.67
2018-12-16T22:30:53.230Z,74.40
2018-12-16T22:33:22.567Z,74.27
2018-12-16T22:35:51.842Z,70.07
2018-12-16T22:38:21.104Z,81.43
2018-12-16T22:40:51.317Z,74.90
2018-12-16T22:43:20.603Z,61.00
2018-12-16T22:45:49.846Z,61.33
2018-12-16T22:48:19.153Z,65.00
2018-12-16T22:50:48.399Z,60.00
2018-12-16T22:53:17.726Z,64.77
2018-12-16T22:55:47.078Z,64.77
2018-12-16T22:58:16.375Z,67.40
2018-12-16T23:00:51.983Z,66.70
2018-12-16T23:03:21.244Z,69.13
2018-12-16T23:05:52.607Z,65.90
2018-12-16T23:08:21.959Z,65.13
2018-12-16T23:10:51.291Z,70.97
2018-12-16T23:13:20.551Z,69.33
2018-12-16T23:15:49.839Z,67.33
2018-12-16T23:18:19.147Z,91.47
2018-12-16T23:20:48.398Z,94.97
2018-12-16T23:23:17.721Z,90.67
2018-12-16T23:25:47.051Z,117.43
2018-12-16T23:28:16.583Z,98.97
2018-12-16T23:30:45.856Z,96.77
2018-12-16T23:33:15.153Z,105.77
2018-12-16T23:35:44.444Z,95.37
2018-12-16T23:38:14.290Z,123.53
2018-12-16T23:40:43.675Z,92.23
2018-12-16T23:43:12.902Z,113.70
2018-12-16T23:45:42.175Z,110.67
2018-12-16T23:48:12.106Z,104.90
2018-12-16T23:50:41.353Z,112.03
2018-12-16T23:53:10.762Z,105.27
2018-12-16T23:55:40.047Z,110.40
2018-12-16T23:58:09.263Z,134.50
